sensor_id;sensor_type;location;lat;lon;timestamp;P1;durP1;ratioP1;P2;durP2;ratioP2
12350;SDS011;6240;51.538;7.696;2022-08-02T00:00:03;4.55;;;3.13;;
12350;SDS011;6240;51.538;7.696;2022-08-02T00:02:31;6.53;;;3.45;;
12350;SDS011;6240;51.538;7.696;2022-08-02T00:04:58;5.63;;;4.07;;
12350;SDS011;6240;51.538;7.696;2022-08-02T00:07:25;6.03;;;3.85;;
12350;SDS011;6240;51.538;7.696;2022-08-02T00:09:52;6.43;;;3.60;;
12350;SDS011;6240;51.538;7.696;2022-08-02T00:12:20;5.05;;;3.30;;
12350;SDS011;6240;51.538;7.696;2022-08-02T00:14:49;6.57;;;3.60;;
12350;SDS011;6240;51.538;7.696;2022-08-02T00:17:16;7.43;;;3.53;;
12350;SDS011;6240;51.538;7.696;2022-08-02T00:19:43;6.10;;;3.58;;
12350;SDS011;6240;51.538;7.696;2022-08-02T00:22:11;6.30;;;3.05;;
12350;SDS011;6240;51.538;7.696;2022-08-02T00:24:38;4.18;;;3.22;;
12350;SDS011;6240;51.538;7.696;2022-08-02T00:27:05;7.13;;;3.53;;
12350;SDS011;6240;51.538;7.696;2022-08-02T00:29:32;4.55;;;3.50;;
12350;SDS011;6240;51.538;7.696;2022-08-02T00:32:01;5.45;;;3.40;;
12350;SDS011;6240;51.538;7.696;2022-08-02T00:34:28;5.05;;;3.25;;
12350;SDS011;6240;51.538;7.696;2022-08-02T00:36:55;6.45;;;3.80;;
12350;SDS011;6240;51.538;7.696;2022-08-02T00:39:22;6.15;;;3.90;;
12350;SDS011;6240;51.538;7.696;2022-08-02T00:41:51;4.70;;;3.70;;
12350;SDS011;6240;51.538;7.696;2022-08-02T00:44:19;4.10;;;3.78;;
12350;SDS011;6240;51.538;7.696;2022-08-02T00:46:46;6.60;;;3.67;;
12350;SDS011;6240;51.538;7.696;2022-08-02T00:49:15;5.88;;;4.00;;
12350;SDS011;6240;51.538;7.696;2022-08-02T00:51:42;7.30;;;3.83;;
12350;SDS011;6240;51.538;7.696;2022-08-02T00:54:09;5.75;;;4.22;;
12350;SDS011;6240;51.538;7.696;2022-08-02T00:56:37;6.47;;;3.92;;
12350;SDS011;6240;51.538;7.696;2022-08-02T00:59:04;4.50;;;4.10;;
12350;SDS011;6240;51.538;7.696;2022-08-02T01:01:31;6.07;;;4.20;;
12350;SDS011;6240;51.538;7.696;2022-08-02T01:04:08;4.53;;;4.00;;
12350;SDS011;6240;51.538;7.696;2022-08-02T01:06:37;7.15;;;4.03;;
12350;SDS011;6240;51.538;7.696;2022-08-02T01:09:05;6.35;;;3.83;;
12350;SDS011;6240;51.538;7.696;2022-08-02T01:11:32;6.30;;;4.18;;
12350;SDS011;6240;51.538;7.696;2022-08-02T01:14:02;8.88;;;4.40;;
12350;SDS011;6240;51.538;7.696;2022-08-02T01:16:32;8.00;;;4.60;;
12350;SDS011;6240;51.538;7.696;2022-08-02T01:19:06;7.28;;;4.35;;
12350;SDS011;6240;51.538;7.696;2022-08-02T01:21:45;6.80;;;4.60;;
12350;SDS011;6240;51.538;7.696;2022-08-02T01:24:17;6.47;;;4.45;;
12350;SDS011;6240;51.538;7.696;2022-08-02T01:26:48;5.40;;;4.90;;
12350;SDS011;6240;51.538;7.696;2022-08-02T01:29:19;6.15;;;4.72;;
12350;SDS011;6240;51.538;7.696;2022-08-02T01:31:49;5.53;;;4.80;;
12350;SDS011;6240;51.538;7.696;2022-08-02T01:34:21;7.40;;;5.15;;
12350;SDS011;6240;51.538;7.696;2022-08-02T01:36:52;8.65;;;5.72;;
12350;SDS011;6240;51.538;7.696;2022-08-02T01:39:22;7.97;;;5.25;;
12350;SDS011;6240;51.538;7.696;2022-08-02T01:41:52;6.68;;;5.13;;
12350;SDS011;6240;51.538;7.696;2022-08-02T01:44:22;6.07;;;4.93;;
12350;SDS011;6240;51.538;7.696;2022-08-02T01:46:51;10.38;;;5.00;;
12350;SDS011;6240;51.538;7.696;2022-08-02T01:49:19;8.40;;;5.20;;
12350;SDS011;6240;51.538;7.696;2022-08-02T01:51:48;7.23;;;4.53;;
12350;SDS011;6240;51.538;7.696;2022-08-02T01:54:33;8.95;;;5.43;;
12350;SDS011;6240;51.538;7.696;2022-08-02T01:57:01;5.60;;;4.82;;
12350;SDS011;6240;51.538;7.696;2022-08-02T01:59:33;8.93;;;5.00;;
12350;SDS011;6240;51.538;7.696;2022-08-02T02:02:02;7.68;;;5.15;;
12350;SDS011;6240;51.538;7.696;2022-08-02T02:04:34;6.93;;;4.50;;
12350;SDS011;6240;51.538;7.696;2022-08-02T02:07:01;8.32;;;4.82;;
12350;SDS011;6240;51.538;7.696;2022-08-02T02:09:29;5.97;;;4.88;;
12350;SDS011;6240;51.538;7.696;2022-08-02T02:11:58;6.75;;;4.68;;
12350;SDS011;6240;51.538;7.696;2022-08-02T02:14:25;5.90;;;4.55;;
12350;SDS011;6240;51.538;7.696;2022-08-02T02:16:55;5.57;;;4.65;;
12350;SDS011;6240;51.538;7.696;2022-08-02T02:19:23;4.95;;;4.38;;
12350;SDS011;6240;51.538;7.696;2022-08-02T02:21:51;5.15;;;4.65;;
12350;SDS011;6240;51.538;7.696;2022-08-02T02:24:18;6.78;;;4.72;;
12350;SDS011;6240;51.538;7.696;2022-08-02T02:26:46;6.45;;;4.88;;
12350;SDS011;6240;51.538;7.696;2022-08-02T02:29:14;6.22;;;4.50;;
12350;SDS011;6240;51.538;7.696;2022-08-02T02:31:42;5.55;;;4.50;;
12350;SDS011;6240;51.538;7.696;2022-08-02T02:34:12;7.07;;;5.43;;
12350;SDS011;6240;51.538;7.696;2022-08-02T02:36:41;9.32;;;5.32;;
12350;SDS011;6240;51.538;7.696;2022-08-02T02:39:11;6.07;;;4.80;;
12350;SDS011;6240;51.538;7.696;2022-08-02T02:41:40;7.05;;;5.00;;
12350;SDS011;6240;51.538;7.696;2022-08-02T02:44:08;6.45;;;4.97;;
12350;SDS011;6240;51.538;7.696;2022-08-02T02:46:36;8.30;;;5.28;;
12350;SDS011;6240;51.538;7.696;2022-08-02T02:49:04;7.43;;;5.80;;
12350;SDS011;6240;51.538;7.696;2022-08-02T02:51:33;7.85;;;5.57;;
12350;SDS011;6240;51.538;7.696;2022-08-02T02:54:00;6.78;;;5.03;;
12350;SDS011;6240;51.538;7.696;2022-08-02T02:56:28;8.02;;;5.35;;
12350;SDS011;6240;51.538;7.696;2022-08-02T02:58:55;10.17;;;5.30;;
12350;SDS011;6240;51.538;7.696;2022-08-02T03:01:24;7.03;;;5.60;;
12350;SDS011;6240;51.538;7.696;2022-08-02T03:03:56;6.97;;;5.40;;
12350;SDS011;6240;51.538;7.696;2022-08-02T03:06:23;6.40;;;5.73;;
12350;SDS011;6240;51.538;7.696;2022-08-02T03:08:52;7.68;;;5.72;;
12350;SDS011;6240;51.538;7.696;2022-08-02T03:11:19;7.15;;;5.75;;
12350;SDS011;6240;51.538;7.696;2022-08-02T03:13:46;7.50;;;6.30;;
12350;SDS011;6240;51.538;7.696;2022-08-02T03:16:14;8.30;;;6.30;;
12350;SDS011;6240;51.538;7.696;2022-08-02T03:18:42;9.80;;;6.57;;
12350;SDS011;6240;51.538;7.696;2022-08-02T03:21:10;7.20;;;6.20;;
12350;SDS011;6240;51.538;7.696;2022-08-02T03:23:38;8.53;;;6.17;;
12350;SDS011;6240;51.538;7.696;2022-08-02T03:26:07;7.53;;;5.70;;
12350;SDS011;6240;51.538;7.696;2022-08-02T03:28:35;8.20;;;5.73;;
12350;SDS011;6240;51.538;7.696;2022-08-02T03:31:02;8.13;;;6.07;;
12350;SDS011;6240;51.538;7.696;2022-08-02T03:33:29;8.70;;;5.75;;
12350;SDS011;6240;51.538;7.696;2022-08-02T03:35:58;6.65;;;6.03;;
12350;SDS011;6240;51.538;7.696;2022-08-02T03:38:25;10.27;;;6.07;;
12350;SDS011;6240;51.538;7.696;2022-08-02T03:40:53;7.53;;;5.47;;
12350;SDS011;6240;51.538;7.696;2022-08-02T03:43:23;6.07;;;5.47;;
12350;SDS011;6240;51.538;7.696;2022-08-02T03:45:51;8.15;;;5.18;;
12350;SDS011;6240;51.538;7.696;2022-08-02T03:48:21;9.60;;;5.83;;
12350;SDS011;6240;51.538;7.696;2022-08-02T03:50:48;7.65;;;5.40;;
12350;SDS011;6240;51.538;7.696;2022-08-02T03:53:16;7.15;;;4.75;;
12350;SDS011;6240;51.538;7.696;2022-08-02T03:55:43;8.23;;;5.20;;
12350;SDS011;6240;51.538;7.696;2022-08-02T03:58:15;8.07;;;5.32;;
12350;SDS011;6240;51.538;7.696;2022-08-02T04:00:44;10.85;;;5.45;;
12350;SDS011;6240;51.538;7.696;2022-08-02T04:03:11;7.10;;;5.53;;
12350;SDS011;6240;51.538;7.696;2022-08-02T04:05:39;6.53;;;5.18;;
12350;SDS011;6240;51.538;7.696;2022-08-02T04:08:06;11.13;;;6.60;;
12350;SDS011;6240;51.538;7.696;2022-08-02T04:10:33;6.70;;;5.78;;
12350;SDS011;6240;51.538;7.696;2022-08-02T04:13:23;11.38;;;5.72;;
12350;SDS011;6240;51.538;7.696;2022-08-02T04:15:55;6.40;;;5.63;;
12350;SDS011;6240;51.538;7.696;2022-08-02T04:18:35;7.10;;;5.45;;
12350;SDS011;6240;51.538;7.696;2022-08-02T04:21:05;8.30;;;5.57;;
12350;SDS011;6240;51.538;7.696;2022-08-02T04:23:33;9.70;;;5.63;;
12350;SDS011;6240;51.538;7.696;2022-08-02T04:26:02;9.35;;;5.60;;
12350;SDS011;6240;51.538;7.696;2022-08-02T04:28:30;6.77;;;4.87;;
12350;SDS011;6240;51.538;7.696;2022-08-02T04:30:59;8.13;;;5.20;;
12350;SDS011;6240;51.538;7.696;2022-08-02T04:33:27;6.40;;;4.70;;
12350;SDS011;6240;51.538;7.696;2022-08-02T04:35:54;5.85;;;5.07;;
12350;SDS011;6240;51.538;7.696;2022-08-02T04:38:23;10.97;;;5.83;;
12350;SDS011;6240;51.538;7.696;2022-08-02T04:40:51;7.35;;;4.95;;
12350;SDS011;6240;51.538;7.696;2022-08-02T04:43:19;7.30;;;5.53;;
12350;SDS011;6240;51.538;7.696;2022-08-02T04:45:46;5.70;;;5.15;;
12350;SDS011;6240;51.538;7.696;2022-08-02T04:48:15;8.10;;;5.63;;
12350;SDS011;6240;51.538;7.696;2022-08-02T04:50:42;6.40;;;5.73;;
12350;SDS011;6240;51.538;7.696;2022-08-02T04:53:12;8.17;;;5.87;;
12350;SDS011;6240;51.538;7.696;2022-08-02T04:55:40;8.43;;;5.65;;
12350;SDS011;6240;51.538;7.696;2022-08-02T04:58:07;7.00;;;5.72;;
12350;SDS011;6240;51.538;7.696;2022-08-02T05:00:34;6.80;;;5.63;;
12350;SDS011;6240;51.538;7.696;2022-08-02T05:03:02;9.70;;;6.20;;
12350;SDS011;6240;51.538;7.696;2022-08-02T05:05:30;7.57;;;6.03;;
12350;SDS011;6240;51.538;7.696;2022-08-02T05:07:58;7.40;;;5.90;;
12350;SDS011;6240;51.538;7.696;2022-08-02T05:10:25;5.97;;;5.43;;
12350;SDS011;6240;51.538;7.696;2022-08-02T05:12:53;11.13;;;6.03;;
12350;SDS011;6240;51.538;7.696;2022-08-02T05:15:20;9.13;;;6.40;;
12350;SDS011;6240;51.538;7.696;2022-08-02T05:17:47;6.90;;;5.90;;
12350;SDS011;6240;51.538;7.696;2022-08-02T05:20:15;10.80;;;5.13;;
12350;SDS011;6240;51.538;7.696;2022-08-02T05:22:44;7.70;;;5.90;;
12350;SDS011;6240;51.538;7.696;2022-08-02T05:25:12;6.45;;;5.40;;
12350;SDS011;6240;51.538;7.696;2022-08-02T05:27:39;7.95;;;5.72;;
12350;SDS011;6240;51.538;7.696;2022-08-02T05:30:07;6.77;;;5.50;;
12350;SDS011;6240;51.538;7.696;2022-08-02T05:32:34;8.03;;;5.73;;
12350;SDS011;6240;51.538;7.696;2022-08-02T05:35:01;7.90;;;5.43;;
12350;SDS011;6240;51.538;7.696;2022-08-02T05:37:32;6.27;;;5.13;;
12350;SDS011;6240;51.538;7.696;2022-08-02T05:40:06;6.88;;;5.72;;
12350;SDS011;6240;51.538;7.696;2022-08-02T05:42:34;5.90;;;5.30;;
12350;SDS011;6240;51.538;7.696;2022-08-02T05:45:02;8.25;;;6.00;;
12350;SDS011;6240;51.538;7.696;2022-08-02T05:47:30;7.80;;;5.68;;
12350;SDS011;6240;51.538;7.696;2022-08-02T05:49:57;7.28;;;5.22;;
12350;SDS011;6240;51.538;7.696;2022-08-02T05:52:25;9.20;;;5.90;;
12350;SDS011;6240;51.538;7.696;2022-08-02T05:54:56;6.43;;;5.47;;
12350;SDS011;6240;51.538;7.696;2022-08-02T05:57:36;6.10;;;5.20;;
12350;SDS011;6240;51.538;7.696;2022-08-02T06:00:04;7.13;;;5.95;;
12350;SDS011;6240;51.538;7.696;2022-08-02T06:02:36;8.02;;;6.00;;
12350;SDS011;6240;51.538;7.696;2022-08-02T06:05:09;6.13;;;5.53;;
12350;SDS011;6240;51.538;7.696;2022-08-02T06:07:37;6.68;;;5.25;;
12350;SDS011;6240;51.538;7.696;2022-08-02T06:10:06;7.28;;;5.75;;
12350;SDS011;6240;51.538;7.696;2022-08-02T06:12:38;9.15;;;6.18;;
12350;SDS011;6240;51.538;7.696;2022-08-02T06:15:07;6.38;;;5.40;;
12350;SDS011;6240;51.538;7.696;2022-08-02T06:17:34;7.68;;;5.55;;
12350;SDS011;6240;51.538;7.696;2022-08-02T06:20:02;8.70;;;6.15;;
12350;SDS011;6240;51.538;7.696;2022-08-02T06:22:29;6.05;;;5.10;;
12350;SDS011;6240;51.538;7.696;2022-08-02T06:24:57;7.57;;;5.68;;
12350;SDS011;6240;51.538;7.696;2022-08-02T06:27:26;5.72;;;5.20;;
12350;SDS011;6240;51.538;7.696;2022-08-02T06:29:55;7.18;;;5.10;;
12350;SDS011;6240;51.538;7.696;2022-08-02T06:32:22;6.75;;;6.05;;
12350;SDS011;6240;51.538;7.696;2022-08-02T06:34:49;7.13;;;5.60;;
12350;SDS011;6240;51.538;7.696;2022-08-02T06:37:18;8.43;;;5.55;;
12350;SDS011;6240;51.538;7.696;2022-08-02T06:39:51;7.78;;;5.28;;
12350;SDS011;6240;51.538;7.696;2022-08-02T06:42:22;5.75;;;5.20;;
12350;SDS011;6240;51.538;7.696;2022-08-02T06:44:52;6.60;;;5.43;;
12350;SDS011;6240;51.538;7.696;2022-08-02T06:47:20;6.68;;;5.40;;
12350;SDS011;6240;51.538;7.696;2022-08-02T06:49:47;9.15;;;5.28;;
12350;SDS011;6240;51.538;7.696;2022-08-02T06:52:15;6.68;;;5.57;;
12350;SDS011;6240;51.538;7.696;2022-08-02T06:54:44;6.75;;;5.00;;
12350;SDS011;6240;51.538;7.696;2022-08-02T06:57:13;8.68;;;5.32;;
12350;SDS011;6240;51.538;7.696;2022-08-02T06:59:41;6.78;;;5.38;;
12350;SDS011;6240;51.538;7.696;2022-08-02T07:02:08;6.95;;;5.50;;
12350;SDS011;6240;51.538;7.696;2022-08-02T07:04:39;8.65;;;5.22;;
12350;SDS011;6240;51.538;7.696;2022-08-02T07:07:06;7.57;;;5.57;;
12350;SDS011;6240;51.538;7.696;2022-08-02T07:09:33;8.13;;;5.38;;
12350;SDS011;6240;51.538;7.696;2022-08-02T07:12:00;7.72;;;5.45;;
12350;SDS011;6240;51.538;7.696;2022-08-02T07:14:28;7.65;;;5.07;;
12350;SDS011;6240;51.538;7.696;2022-08-02T07:16:56;8.63;;;5.03;;
12350;SDS011;6240;51.538;7.696;2022-08-02T07:19:24;7.55;;;4.53;;
12350;SDS011;6240;51.538;7.696;2022-08-02T07:21:52;5.55;;;3.90;;
12350;SDS011;6240;51.538;7.696;2022-08-02T07:24:19;7.53;;;4.75;;
12350;SDS011;6240;51.538;7.696;2022-08-02T07:26:47;8.50;;;4.63;;
12350;SDS011;6240;51.538;7.696;2022-08-02T07:29:14;6.45;;;3.97;;
12350;SDS011;6240;51.538;7.696;2022-08-02T07:31:41;5.20;;;3.92;;
12350;SDS011;6240;51.538;7.696;2022-08-02T07:34:08;6.35;;;4.00;;
12350;SDS011;6240;51.538;7.696;2022-08-02T07:36:36;5.85;;;3.13;;
12350;SDS011;6240;51.538;7.696;2022-08-02T07:39:06;5.10;;;3.40;;
12350;SDS011;6240;51.538;7.696;2022-08-02T07:41:33;5.97;;;3.53;;
12350;SDS011;6240;51.538;7.696;2022-08-02T07:44:00;7.15;;;3.50;;
12350;SDS011;6240;51.538;7.696;2022-08-02T07:46:28;5.20;;;3.25;;
12350;SDS011;6240;51.538;7.696;2022-08-02T07:48:57;6.28;;;3.20;;
12350;SDS011;6240;51.538;7.696;2022-08-02T07:51:24;4.80;;;2.90;;
12350;SDS011;6240;51.538;7.696;2022-08-02T07:53:52;4.00;;;3.22;;
12350;SDS011;6240;51.538;7.696;2022-08-02T07:56:20;3.88;;;2.80;;
12350;SDS011;6240;51.538;7.696;2022-08-02T07:58:47;3.92;;;2.58;;
12350;SDS011;6240;51.538;7.696;2022-08-02T08:01:15;3.95;;;2.53;;
12350;SDS011;6240;51.538;7.696;2022-08-02T08:03:42;3.85;;;3.03;;
12350;SDS011;6240;51.538;7.696;2022-08-02T08:06:09;4.43;;;2.42;;
12350;SDS011;6240;51.538;7.696;2022-08-02T08:08:37;4.72;;;2.42;;
12350;SDS011;6240;51.538;7.696;2022-08-02T08:11:04;4.45;;;2.58;;
12350;SDS011;6240;51.538;7.696;2022-08-02T08:13:33;5.63;;;2.67;;
12350;SDS011;6240;51.538;7.696;2022-08-02T08:16:00;4.40;;;2.65;;
12350;SDS011;6240;51.538;7.696;2022-08-02T08:18:28;6.07;;;2.40;;
12350;SDS011;6240;51.538;7.696;2022-08-02T08:20:55;3.30;;;2.08;;
12350;SDS011;6240;51.538;7.696;2022-08-02T08:23:22;3.45;;;2.30;;
12350;SDS011;6240;51.538;7.696;2022-08-02T08:25:49;2.38;;;1.90;;
12350;SDS011;6240;51.538;7.696;2022-08-02T08:28:17;2.72;;;1.83;;
12350;SDS011;6240;51.538;7.696;2022-08-02T08:30:45;2.72;;;2.00;;
12350;SDS011;6240;51.538;7.696;2022-08-02T08:33:13;4.93;;;2.25;;
12350;SDS011;6240;51.538;7.696;2022-08-02T08:35:40;2.97;;;1.98;;
12350;SDS011;6240;51.538;7.696;2022-08-02T08:38:08;2.70;;;1.60;;
12350;SDS011;6240;51.538;7.696;2022-08-02T08:40:35;5.78;;;1.95;;
12350;SDS011;6240;51.538;7.696;2022-08-02T08:43:02;3.80;;;1.38;;
12350;SDS011;6240;51.538;7.696;2022-08-02T08:45:30;4.80;;;1.80;;
12350;SDS011;6240;51.538;7.696;2022-08-02T08:48:00;1.63;;;1.52;;
12350;SDS011;6240;51.538;7.696;2022-08-02T08:50:29;2.15;;;1.30;;
12350;SDS011;6240;51.538;7.696;2022-08-02T08:53:00;2.20;;;1.70;;
12350;SDS011;6240;51.538;7.696;2022-08-02T08:55:28;1.52;;;1.38;;
12350;SDS011;6240;51.538;7.696;2022-08-02T08:57:55;1.30;;;1.10;;
12350;SDS011;6240;51.538;7.696;2022-08-02T09:00:24;2.88;;;1.33;;
12350;SDS011;6240;51.538;7.696;2022-08-02T09:02:51;2.80;;;1.30;;
12350;SDS011;6240;51.538;7.696;2022-08-02T09:05:20;2.15;;;1.65;;
12350;SDS011;6240;51.538;7.696;2022-08-02T09:07:48;2.03;;;1.40;;
12350;SDS011;6240;51.538;7.696;2022-08-02T09:10:32;1.40;;;1.13;;
12350;SDS011;6240;51.538;7.696;2022-08-02T09:13:11;6.43;;;1.50;;
12350;SDS011;6240;51.538;7.696;2022-08-02T09:15:42;2.58;;;1.52;;
12350;SDS011;6240;51.538;7.696;2022-08-02T09:18:11;2.25;;;1.30;;
12350;SDS011;6240;51.538;7.696;2022-08-02T09:20:53;2.63;;;1.30;;
12350;SDS011;6240;51.538;7.696;2022-08-02T09:23:23;4.65;;;1.50;;
12350;SDS011;6240;51.538;7.696;2022-08-02T09:25:55;2.17;;;1.80;;
12350;SDS011;6240;51.538;7.696;2022-08-02T09:28:26;1.92;;;1.52;;
12350;SDS011;6240;51.538;7.696;2022-08-02T09:30:57;4.75;;;1.65;;
12350;SDS011;6240;51.538;7.696;2022-08-02T09:33:28;2.22;;;1.77;;
12350;SDS011;6240;51.538;7.696;2022-08-02T09:36:01;3.05;;;1.65;;
12350;SDS011;6240;51.538;7.696;2022-08-02T09:38:28;1.80;;;1.60;;
12350;SDS011;6240;51.538;7.696;2022-08-02T09:40:58;2.00;;;1.73;;
12350;SDS011;6240;51.538;7.696;2022-08-02T09:43:37;4.47;;;1.90;;
12350;SDS011;6240;51.538;7.696;2022-08-02T09:46:11;4.13;;;1.60;;
12350;SDS011;6240;51.538;7.696;2022-08-02T09:48:45;3.85;;;1.80;;
12350;SDS011;6240;51.538;7.696;2022-08-02T09:51:17;3.00;;;1.67;;
12350;SDS011;6240;51.538;7.696;2022-08-02T09:53:45;2.30;;;1.63;;
12350;SDS011;6240;51.538;7.696;2022-08-02T09:56:13;3.63;;;1.60;;
12350;SDS011;6240;51.538;7.696;2022-08-02T09:58:41;2.28;;;1.80;;
12350;SDS011;6240;51.538;7.696;2022-08-02T10:01:08;2.42;;;2.10;;
12350;SDS011;6240;51.538;7.696;2022-08-02T10:03:36;4.70;;;2.33;;
12350;SDS011;6240;51.538;7.696;2022-08-02T10:06:03;2.15;;;1.55;;
12350;SDS011;6240;51.538;7.696;2022-08-02T10:08:34;6.35;;;1.70;;
12350;SDS011;6240;51.538;7.696;2022-08-02T10:11:01;1.45;;;1.35;;
12350;SDS011;6240;51.538;7.696;2022-08-02T10:13:29;3.22;;;1.50;;
12350;SDS011;6240;51.538;7.696;2022-08-02T10:15:56;3.42;;;1.60;;
12350;SDS011;6240;51.538;7.696;2022-08-02T10:18:23;1.95;;;1.77;;
12350;SDS011;6240;51.538;7.696;2022-08-02T10:20:50;2.10;;;1.70;;
12350;SDS011;6240;51.538;7.696;2022-08-02T10:23:20;2.13;;;1.52;;
12350;SDS011;6240;51.538;7.696;2022-08-02T10:25:50;3.33;;;1.40;;
12350;SDS011;6240;51.538;7.696;2022-08-02T10:28:19;1.52;;;1.38;;
12350;SDS011;6240;51.538;7.696;2022-08-02T10:30:52;1.52;;;1.40;;
12350;SDS011;6240;51.538;7.696;2022-08-02T10:33:20;2.88;;;1.67;;
12350;SDS011;6240;51.538;7.696;2022-08-02T10:35:50;4.30;;;1.83;;
12350;SDS011;6240;51.538;7.696;2022-08-02T10:38:17;2.25;;;1.90;;
12350;SDS011;6240;51.538;7.696;2022-08-02T10:40:48;1.80;;;1.60;;
12350;SDS011;6240;51.538;7.696;2022-08-02T10:46:29;5.63;;;1.60;;
12350;SDS011;6240;51.538;7.696;2022-08-02T10:49:01;1.75;;;1.65;;
12350;SDS011;6240;51.538;7.696;2022-08-02T10:54:10;1.60;;;1.50;;
12350;SDS011;6240;51.538;7.696;2022-08-02T10:56:45;1.80;;;1.55;;
12350;SDS011;6240;51.538;7.696;2022-08-02T11:01:56;1.52;;;1.35;;
12350;SDS011;6240;51.538;7.696;2022-08-02T11:04:29;1.75;;;1.55;;
12350;SDS011;6240;51.538;7.696;2022-08-02T11:07:06;1.45;;;1.35;;
12350;SDS011;6240;51.538;7.696;2022-08-02T11:09:33;2.55;;;1.60;;
12350;SDS011;6240;51.538;7.696;2022-08-02T11:12:02;2.38;;;2.15;;
12350;SDS011;6240;51.538;7.696;2022-08-02T11:14:31;1.90;;;1.67;;
12350;SDS011;6240;51.538;7.696;2022-08-02T11:17:10;3.45;;;1.80;;
12350;SDS011;6240;51.538;7.696;2022-08-02T11:22:21;3.35;;;1.88;;
12350;SDS011;6240;51.538;7.696;2022-08-02T11:24:49;3.40;;;1.80;;
12350;SDS011;6240;51.538;7.696;2022-08-02T11:27:20;3.67;;;1.77;;
12350;SDS011;6240;51.538;7.696;2022-08-02T11:29:48;2.00;;;1.80;;
12350;SDS011;6240;51.538;7.696;2022-08-02T11:32:19;1.80;;;1.70;;
12350;SDS011;6240;51.538;7.696;2022-08-02T11:34:48;2.33;;;1.90;;
12350;SDS011;6240;51.538;7.696;2022-08-02T11:37:26;1.70;;;1.60;;
12350;SDS011;6240;51.538;7.696;2022-08-02T11:39:53;7.15;;;2.00;;
12350;SDS011;6240;51.538;7.696;2022-08-02T11:42:21;2.72;;;1.77;;
12350;SDS011;6240;51.538;7.696;2022-08-02T11:44:48;1.75;;;1.65;;
12350;SDS011;6240;51.538;7.696;2022-08-02T11:47:17;3.25;;;1.67;;
12350;SDS011;6240;51.538;7.696;2022-08-02T11:49:45;3.38;;;1.88;;
12350;SDS011;6240;51.538;7.696;2022-08-02T11:52:12;1.77;;;1.65;;
12350;SDS011;6240;51.538;7.696;2022-08-02T11:54:41;2.33;;;1.38;;
12350;SDS011;6240;51.538;7.696;2022-08-02T11:57:09;2.35;;;1.83;;
12350;SDS011;6240;51.538;7.696;2022-08-02T11:59:38;2.20;;;1.70;;
12350;SDS011;6240;51.538;7.696;2022-08-02T12:02:11;3.03;;;1.67;;
12350;SDS011;6240;51.538;7.696;2022-08-02T12:04:42;2.55;;;1.70;;
12350;SDS011;6240;51.538;7.696;2022-08-02T12:07:09;2.13;;;1.73;;
12350;SDS011;6240;51.538;7.696;2022-08-02T12:09:36;1.73;;;1.60;;
12350;SDS011;6240;51.538;7.696;2022-08-02T12:12:04;2.10;;;1.90;;
12350;SDS011;6240;51.538;7.696;2022-08-02T12:14:31;3.08;;;1.83;;
12350;SDS011;6240;51.538;7.696;2022-08-02T12:17:07;2.85;;;1.98;;
12350;SDS011;6240;51.538;7.696;2022-08-02T12:19:57;2.72;;;1.98;;
12350;SDS011;6240;51.538;7.696;2022-08-02T12:22:28;1.95;;;1.83;;
12350;SDS011;6240;51.538;7.696;2022-08-02T12:25:13;2.33;;;1.73;;
12350;SDS011;6240;51.538;7.696;2022-08-02T12:27:41;3.47;;;2.55;;
12350;SDS011;6240;51.538;7.696;2022-08-02T12:30:09;7.55;;;2.22;;
12350;SDS011;6240;51.538;7.696;2022-08-02T12:32:37;3.35;;;2.33;;
12350;SDS011;6240;51.538;7.696;2022-08-02T12:35:09;2.10;;;1.90;;
12350;SDS011;6240;51.538;7.696;2022-08-02T12:37:38;3.55;;;2.03;;
12350;SDS011;6240;51.538;7.696;2022-08-02T12:40:21;2.03;;;1.83;;
12350;SDS011;6240;51.538;7.696;2022-08-02T12:42:49;3.45;;;2.33;;
12350;SDS011;6240;51.538;7.696;2022-08-02T12:45:26;2.05;;;1.85;;
12350;SDS011;6240;51.538;7.696;2022-08-02T12:47:56;2.63;;;2.22;;
12350;SDS011;6240;51.538;7.696;2022-08-02T12:50:29;4.80;;;2.00;;
12350;SDS011;6240;51.538;7.696;2022-08-02T12:53:05;2.38;;;2.10;;
12350;SDS011;6240;51.538;7.696;2022-08-02T12:55:45;2.85;;;2.00;;
12350;SDS011;6240;51.538;7.696;2022-08-02T12:58:15;2.40;;;2.20;;
12350;SDS011;6240;51.538;7.696;2022-08-02T13:00:50;2.38;;;2.13;;
12350;SDS011;6240;51.538;7.696;2022-08-02T13:03:18;2.30;;;2.10;;
12350;SDS011;6240;51.538;7.696;2022-08-02T13:05:51;3.95;;;2.25;;
12350;SDS011;6240;51.538;7.696;2022-08-02T13:08:20;3.65;;;2.38;;
12350;SDS011;6240;51.538;7.696;2022-08-02T13:10:47;2.30;;;2.10;;
12350;SDS011;6240;51.538;7.696;2022-08-02T13:13:15;2.70;;;2.30;;
12350;SDS011;6240;51.538;7.696;2022-08-02T13:15:42;2.60;;;2.40;;
12350;SDS011;6240;51.538;7.696;2022-08-02T13:18:09;2.38;;;1.80;;
12350;SDS011;6240;51.538;7.696;2022-08-02T13:20:37;3.38;;;2.17;;
12350;SDS011;6240;51.538;7.696;2022-08-02T13:23:05;3.38;;;2.28;;
12350;SDS011;6240;51.538;7.696;2022-08-02T13:25:33;4.43;;;2.25;;
12350;SDS011;6240;51.538;7.696;2022-08-02T13:28:00;4.38;;;2.10;;
12350;SDS011;6240;51.538;7.696;2022-08-02T13:30:27;2.75;;;2.25;;
12350;SDS011;6240;51.538;7.696;2022-08-02T13:32:54;3.15;;;2.00;;
12350;SDS011;6240;51.538;7.696;2022-08-02T13:35:21;3.03;;;2.15;;
12350;SDS011;6240;51.538;7.696;2022-08-02T13:37:50;2.20;;;2.00;;
12350;SDS011;6240;51.538;7.696;2022-08-02T13:40:18;5.10;;;2.55;;
12350;SDS011;6240;51.538;7.696;2022-08-02T13:42:46;2.85;;;2.10;;
12350;SDS011;6240;51.538;7.696;2022-08-02T13:45:14;3.10;;;1.80;;
12350;SDS011;6240;51.538;7.696;2022-08-02T13:47:45;3.13;;;2.20;;
12350;SDS011;6240;51.538;7.696;2022-08-02T13:50:15;4.03;;;1.80;;
12350;SDS011;6240;51.538;7.696;2022-08-02T13:52:44;4.95;;;2.20;;
12350;SDS011;6240;51.538;7.696;2022-08-02T13:55:12;3.47;;;2.15;;
12350;SDS011;6240;51.538;7.696;2022-08-02T13:57:41;1.80;;;1.70;;
12350;SDS011;6240;51.538;7.696;2022-08-02T14:00:10;2.88;;;2.45;;
12350;SDS011;6240;51.538;7.696;2022-08-02T14:02:40;3.03;;;2.10;;
12350;SDS011;6240;51.538;7.696;2022-08-02T14:05:13;2.97;;;2.00;;
12350;SDS011;6240;51.538;7.696;2022-08-02T14:07:41;2.75;;;2.05;;
12350;SDS011;6240;51.538;7.696;2022-08-02T14:10:10;2.83;;;1.83;;
12350;SDS011;6240;51.538;7.696;2022-08-02T14:12:40;2.67;;;1.90;;
12350;SDS011;6240;51.538;7.696;2022-08-02T14:15:12;3.58;;;1.98;;
12350;SDS011;6240;51.538;7.696;2022-08-02T14:17:39;3.30;;;2.10;;
12350;SDS011;6240;51.538;7.696;2022-08-02T14:20:07;3.03;;;1.80;;
12350;SDS011;6240;51.538;7.696;2022-08-02T14:22:34;2.40;;;1.80;;
12350;SDS011;6240;51.538;7.696;2022-08-02T14:25:03;3.08;;;1.73;;
12350;SDS011;6240;51.538;7.696;2022-08-02T14:27:33;2.25;;;1.65;;
12350;SDS011;6240;51.538;7.696;2022-08-02T14:30:03;4.32;;;1.70;;
12350;SDS011;6240;51.538;7.696;2022-08-02T14:32:33;2.17;;;1.77;;
12350;SDS011;6240;51.538;7.696;2022-08-02T14:35:00;4.75;;;1.70;;
12350;SDS011;6240;51.538;7.696;2022-08-02T14:37:27;3.40;;;2.42;;
12350;SDS011;6240;51.538;7.696;2022-08-02T14:39:54;4.55;;;2.00;;
12350;SDS011;6240;51.538;7.696;2022-08-02T14:42:22;2.78;;;1.90;;
12350;SDS011;6240;51.538;7.696;2022-08-02T14:44:50;2.17;;;1.65;;
12350;SDS011;6240;51.538;7.696;2022-08-02T14:47:18;1.60;;;1.48;;
12350;SDS011;6240;51.538;7.696;2022-08-02T14:49:46;2.58;;;1.98;;
12350;SDS011;6240;51.538;7.696;2022-08-02T14:52:14;2.70;;;1.85;;
12350;SDS011;6240;51.538;7.696;2022-08-02T14:54:41;2.38;;;2.15;;
12350;SDS011;6240;51.538;7.696;2022-08-02T14:57:12;2.70;;;1.65;;
12350;SDS011;6240;51.538;7.696;2022-08-02T14:59:42;5.63;;;1.90;;
12350;SDS011;6240;51.538;7.696;2022-08-02T15:02:11;2.97;;;1.52;;
12350;SDS011;6240;51.538;7.696;2022-08-02T15:04:39;2.80;;;1.88;;
12350;SDS011;6240;51.538;7.696;2022-08-02T15:07:07;3.03;;;1.67;;
12350;SDS011;6240;51.538;7.696;2022-08-02T15:09:34;2.13;;;1.70;;
12350;SDS011;6240;51.538;7.696;2022-08-02T15:12:02;2.35;;;1.70;;
12350;SDS011;6240;51.538;7.696;2022-08-02T15:14:30;2.00;;;1.52;;
12350;SDS011;6240;51.538;7.696;2022-08-02T15:16:57;2.17;;;1.60;;
12350;SDS011;6240;51.538;7.696;2022-08-02T15:19:25;3.40;;;1.50;;
12350;SDS011;6240;51.538;7.696;2022-08-02T15:21:55;3.72;;;1.70;;